createdAt,value
2023-05-12T00:00:42.260Z,0
2023-05-12T00:03:42.433Z,0
2023-05-12T00:06:42.221Z,0
2023-05-12T00:09:42.250Z,0
2023-05-12T00:12:42.283Z,0
2023-05-12T00:15:42.257Z,0
2023-05-12T00:18:42.285Z,0
2023-05-12T00:21:42.271Z,0
2023-05-12T00:24:42.230Z,0.01
2023-05-12T00:27:42.319Z,0
2023-05-12T00:30:42.303Z,0
2023-05-12T00:33:42.319Z,0
2023-05-12T00:36:42.331Z,0.14
2023-05-12T00:39:42.337Z,0.47
2023-05-12T00:42:42.292Z,0.26
2023-05-12T00:45:42.284Z,0.19
2023-05-12T00:48:42.278Z,0
2023-05-12T00:51:42.357Z,0.04
2023-05-12T00:54:42.289Z,0.01
2023-05-12T00:57:42.492Z,0
2023-05-12T01:00:42.303Z,0
2023-05-12T01:03:42.412Z,0
2023-05-12T01:06:42.393Z,0
2023-05-12T01:09:42.313Z,0.15
2023-05-12T01:12:42.290Z,0.17
2023-05-12T01:15:42.319Z,0.01
2023-05-12T01:18:42.385Z,0.04
2023-05-12T01:21:42.393Z,0
2023-05-12T01:24:42.305Z,0.1
2023-05-12T01:27:42.319Z,0.09
2023-05-12T01:30:42.410Z,0.1
2023-05-12T01:33:42.374Z,0.13
2023-05-12T01:36:42.383Z,0.18
2023-05-12T01:39:42.350Z,0.09
2023-05-12T01:42:42.328Z,0.21
2023-05-12T01:45:42.288Z,0.11
2023-05-12T01:48:42.386Z,0.07
2023-05-12T01:51:42.357Z,0.09
2023-05-12T01:54:42.382Z,0.01
2023-05-12T01:57:42.345Z,0
2023-05-12T02:00:42.408Z,0
2023-05-12T02:03:42.494Z,0
2023-05-12T02:06:42.306Z,0.01
2023-05-12T02:09:42.400Z,0.08
2023-05-12T02:12:42.390Z,0.19
2023-05-12T02:15:42.359Z,0.18
2023-05-12T02:18:42.455Z,0.03
2023-05-12T02:21:42.389Z,0.08
2023-05-12T02:24:42.429Z,0.12
2023-05-12T02:27:42.427Z,0.13
2023-05-12T02:30:42.425Z,0.12
2023-05-12T02:33:42.453Z,0.04
2023-05-12T02:36:42.482Z,0
2023-05-12T02:39:42.433Z,0
2023-05-12T02:42:42.418Z,0
2023-05-12T02:45:42.383Z,0.08
2023-05-12T02:48:42.383Z,0.11
2023-05-12T02:51:42.389Z,0.17
2023-05-12T02:54:42.361Z,0.18
2023-05-12T02:57:42.468Z,0.01
2023-05-12T03:00:42.457Z,0
2023-05-12T03:03:42.632Z,0.03
2023-05-12T03:06:42.468Z,0.02
2023-05-12T03:09:42.466Z,0
2023-05-12T03:12:42.456Z,0.02
2023-05-12T03:15:42.476Z,0.07
2023-05-12T03:18:42.509Z,0.13
2023-05-12T03:21:42.466Z,0.05
2023-05-12T03:24:42.463Z,0
2023-05-12T03:27:42.437Z,0.01
2023-05-12T03:30:42.414Z,0.05
2023-05-12T03:33:42.489Z,0
2023-05-12T03:36:42.432Z,0
2023-05-12T03:39:42.402Z,0
2023-05-12T03:42:42.464Z,0
2023-05-12T03:45:42.456Z,0
2023-05-12T03:48:42.479Z,0
2023-05-12T03:51:42.485Z,0
2023-05-12T03:54:42.489Z,0
2023-05-12T03:57:42.449Z,0
2023-05-12T04:00:42.482Z,0
2023-05-12T04:03:42.627Z,0.04
2023-05-12T04:06:42.490Z,0
2023-05-12T04:09:42.471Z,0
2023-05-12T04:12:42.458Z,0
2023-05-12T04:15:42.515Z,0
2023-05-12T04:18:42.540Z,0
2023-05-12T04:21:42.546Z,0.01
2023-05-12T04:24:42.559Z,0.13
2023-05-12T04:27:42.458Z,0.14
2023-05-12T04:30:42.494Z,0.09
2023-05-12T04:33:42.460Z,0.17
2023-05-12T04:36:42.483Z,0.14
2023-05-12T04:39:42.548Z,0.11
2023-05-12T04:42:42.526Z,0.16
2023-05-12T04:45:42.603Z,0.02
2023-05-12T04:48:42.490Z,0
2023-05-12T04:51:42.490Z,0
2023-05-12T04:54:42.484Z,0
2023-05-12T04:57:42.497Z,0
2023-05-12T05:00:42.571Z,0.08
2023-05-12T05:03:42.819Z,0
2023-05-12T05:06:42.545Z,0
2023-05-12T05:09:42.589Z,0
2023-05-12T05:12:42.573Z,0
2023-05-12T05:15:42.588Z,0
2023-05-12T05:18:42.600Z,0
2023-05-12T05:21:42.525Z,0.14
2023-05-12T05:24:42.511Z,0.04
2023-05-12T05:27:42.568Z,0.06
2023-05-12T05:30:42.571Z,0.07
2023-05-12T05:33:42.526Z,0.11
2023-05-12T05:36:42.504Z,0.12
2023-05-12T05:39:42.593Z,0.07
2023-05-12T05:42:42.618Z,0
2023-05-12T05:45:42.637Z,0
2023-05-12T05:48:42.552Z,0.11
2023-05-12T05:51:42.560Z,0.09
2023-05-12T05:54:42.580Z,0.07
2023-05-12T05:57:42.560Z,0
2023-05-12T06:00:42.586Z,0
2023-05-12T06:03:42.607Z,0.03
2023-05-12T06:06:42.595Z,0.01
2023-05-12T06:09:42.529Z,0.08
2023-05-12T06:12:42.619Z,0.14
2023-05-12T06:15:42.554Z,0.06
2023-05-12T06:18:42.644Z,0.11
2023-05-12T06:21:42.585Z,0.58
2023-05-12T06:24:42.624Z,0.44
2023-05-12T06:27:42.597Z,0.57
2023-05-12T06:30:42.561Z,0.4
2023-05-12T06:33:42.687Z,0.41
2023-05-12T06:36:42.661Z,0.3
2023-05-12T06:39:42.667Z,0.29
2023-05-12T06:42:42.582Z,0.28
2023-05-12T06:45:42.612Z,0.36
2023-05-12T06:48:42.649Z,0.41
2023-05-12T06:51:42.625Z,0.25
2023-05-12T06:54:42.670Z,0.5
2023-05-12T06:57:42.634Z,0.73
2023-05-12T07:00:42.658Z,0.72
2023-05-12T07:03:42.729Z,0.5
2023-05-12T07:06:42.605Z,0.41
2023-05-12T07:09:42.686Z,0.51
2023-05-12T07:12:42.685Z,0.45
2023-05-12T07:15:42.667Z,0.26
2023-05-12T07:18:42.698Z,0.35
2023-05-12T07:21:42.679Z,0.17
2023-05-12T07:24:42.684Z,0.54
2023-05-12T07:27:42.697Z,0.49
2023-05-12T07:30:42.715Z,0.57
2023-05-12T07:33:42.727Z,0.8
2023-05-12T07:36:42.709Z,0.74
2023-05-12T07:39:42.638Z,0.85
2023-05-12T07:42:42.711Z,0.73
2023-05-12T07:45:42.722Z,0.51
2023-05-12T07:48:42.664Z,0.87
2023-05-12T07:51:42.710Z,0.74
2023-05-12T07:54:42.733Z,0.85
2023-05-12T07:57:42.680Z,0.65
2023-05-12T08:00:42.745Z,0.78
2023-05-12T08:03:42.743Z,1.03
2023-05-12T08:06:42.675Z,0.44
2023-05-12T08:09:42.660Z,0.83
2023-05-12T08:12:42.671Z,0.94
2023-05-12T08:15:42.680Z,0.87
2023-05-12T08:18:42.795Z,0.74
2023-05-12T08:21:42.656Z,0.92
2023-05-12T08:24:42.736Z,0.93
2023-05-12T08:27:42.667Z,0.86
2023-05-12T08:30:42.733Z,0.96
2023-05-12T08:33:42.738Z,0.74
2023-05-12T08:36:42.766Z,0.83
2023-05-12T08:39:42.777Z,0.57
2023-05-12T08:42:42.706Z,0.62
2023-05-12T08:45:42.749Z,0.87
2023-05-12T08:48:42.773Z,1.06
2023-05-12T08:51:42.685Z,0.98
2023-05-12T08:54:52.599Z,1.24
2023-05-12T08:57:42.755Z,0.72
2023-05-12T09:00:42.754Z,0.89
2023-05-12T09:03:42.782Z,0.63
2023-05-12T09:06:42.982Z,0.85
2023-05-12T09:09:42.796Z,0.71
2023-05-12T09:12:42.784Z,0.85
2023-05-12T09:15:42.783Z,0.68
2023-05-12T09:18:42.801Z,0.76
2023-05-12T09:21:42.725Z,0.74
2023-05-12T09:24:42.761Z,1.04
2023-05-12T09:27:42.768Z,0.91
2023-05-12T09:30:42.864Z,0.71
2023-05-12T09:33:42.800Z,0.49
2023-05-12T09:36:42.770Z,0.77
2023-05-12T09:39:42.815Z,0.92
2023-05-12T09:42:42.739Z,0.94
2023-05-12T09:45:42.772Z,0.83
2023-05-12T09:48:42.763Z,0.63
2023-05-12T09:51:42.808Z,0.51
2023-05-12T09:54:42.821Z,0.47
2023-05-12T09:57:42.786Z,0.82
2023-05-12T10:00:59.000Z,0.68
2023-05-12T10:03:42.778Z,0.83
2023-05-12T10:06:42.753Z,0.64
2023-05-12T10:09:42.855Z,0.77
2023-05-12T10:12:42.799Z,0.3
2023-05-12T10:15:42.785Z,0.79
2023-05-12T10:18:42.821Z,0.6
2023-05-12T10:21:42.821Z,0.54
2023-05-12T10:24:42.783Z,0.62
2023-05-12T10:27:42.799Z,0.5
2023-05-12T10:30:42.772Z,0.35
2023-05-12T10:33:42.811Z,0.49
2023-05-12T10:36:42.820Z,0.41
2023-05-12T10:39:42.830Z,0.3
2023-05-12T10:42:42.835Z,0.62
2023-05-12T10:45:42.789Z,0.82
2023-05-12T10:48:42.957Z,0.66
2023-05-12T10:51:42.872Z,0.94
2023-05-12T10:54:42.835Z,1.01
2023-05-12T10:57:42.991Z,0.64
2023-05-12T11:00:43.115Z,0.69
2023-05-12T11:03:43.706Z,0.65
2023-05-12T11:06:43.174Z,0.88
2023-05-12T11:09:53.486Z,0.66
2023-05-12T11:12:42.884Z,0.62
2023-05-12T11:15:42.897Z,0.99
2023-05-12T11:18:42.877Z,0.77
2023-05-12T11:21:42.845Z,0.68
2023-05-12T11:24:42.855Z,0.58
2023-05-12T11:27:42.955Z,0.57
2023-05-12T11:30:42.832Z,0.42
2023-05-12T11:33:42.869Z,0.38
2023-05-12T11:36:42.885Z,0.18
2023-05-12T11:39:42.905Z,0.31
2023-05-12T11:42:42.867Z,0.43
2023-05-12T11:45:42.987Z,0.33
2023-05-12T11:48:42.902Z,0.38
2023-05-12T11:51:42.864Z,0.4
2023-05-12T11:54:42.944Z,0.43
2023-05-12T11:57:42.841Z,0.36
2023-05-12T12:00:42.907Z,0.32
2023-05-12T12:03:42.932Z,0.47
2023-05-12T12:06:42.872Z,0.19
2023-05-12T12:09:42.969Z,0.47
2023-05-12T12:12:42.948Z,0.56
2023-05-12T12:15:42.955Z,0.55
2023-05-12T12:18:45.341Z,0.43
2023-05-12T12:21:42.954Z,0.57
2023-05-12T12:24:42.875Z,0.43
2023-05-12T12:27:42.916Z,0.42
2023-05-12T12:30:42.957Z,0.55
2023-05-12T12:33:42.938Z,0.71
2023-05-12T12:36:42.954Z,0.68
2023-05-12T12:39:42.902Z,0.52
2023-05-12T12:42:42.978Z,0.75
2023-05-12T12:45:42.988Z,1.16
2023-05-12T12:48:42.908Z,1.09
2023-05-12T12:51:46.444Z,0.82
2023-05-12T12:54:42.927Z,0.74
2023-05-12T12:57:42.888Z,0.78
2023-05-12T13:00:43.023Z,0.88
2023-05-12T13:03:43.035Z,0.68
2023-05-12T13:06:43.002Z,0.52
2023-05-12T13:09:42.992Z,0.4
2023-05-12T13:12:43.017Z,0.74
2023-05-12T13:15:43.015Z,0.48
2023-05-12T13:18:42.987Z,0.76
2023-05-12T13:21:43.107Z,0.65
2023-05-12T13:24:42.989Z,0.44
2023-05-12T13:27:43.030Z,0.59
2023-05-12T13:30:43.019Z,0.8
2023-05-12T13:33:43.119Z,0.51
2023-05-12T13:36:42.934Z,0.56
2023-05-12T13:39:42.981Z,0.47
2023-05-12T13:42:42.952Z,0.44
2023-05-12T13:45:43.143Z,0.82
2023-05-12T13:48:42.990Z,0.9
2023-05-12T13:51:42.973Z,0.77
2023-05-12T13:54:43.020Z,0.91
2023-05-12T13:57:43.025Z,0.71
2023-05-12T14:00:46.140Z,1.11
2023-05-12T14:03:42.965Z,1
2023-05-12T14:06:43.034Z,0.84
2023-05-12T14:09:43.051Z,1
2023-05-12T14:12:43.068Z,0.54
2023-05-12T14:15:49.013Z,0.63
2023-05-12T14:18:43.776Z,0.46
2023-05-12T14:21:43.036Z,0.66
2023-05-12T14:24:42.998Z,0.99
2023-05-12T14:27:43.023Z,0.87
2023-05-12T14:30:43.000Z,0.93
2023-05-12T14:33:42.996Z,0.84
2023-05-12T14:36:42.982Z,0.76
2023-05-12T14:39:43.081Z,0.75
2023-05-12T14:42:43.099Z,0.56
2023-05-12T14:45:43.031Z,0.8
2023-05-12T14:48:43.131Z,0.68
2023-05-12T14:51:43.061Z,0.79
2023-05-12T14:54:43.128Z,0.66
2023-05-12T14:57:43.040Z,0.77
2023-05-12T15:00:43.085Z,0.71
2023-05-12T15:03:45.837Z,0.79
2023-05-12T15:06:43.072Z,0.79
2023-05-12T15:09:43.057Z,0.92
2023-05-12T15:12:43.078Z,0.63
2023-05-12T15:15:43.112Z,0.67
2023-05-12T15:18:43.083Z,0.56
2023-05-12T15:21:43.105Z,0.43
2023-05-12T15:24:43.049Z,0.43
2023-05-12T15:27:43.036Z,0.55
2023-05-12T15:30:43.077Z,0.97
2023-05-12T15:33:43.159Z,1.17
2023-05-12T15:36:43.079Z,0.6
2023-05-12T15:39:43.082Z,1.13
2023-05-12T15:42:43.122Z,0.56
2023-05-12T15:45:43.187Z,0.51
2023-05-12T15:48:43.090Z,0.79
2023-05-12T15:51:43.060Z,0.53
2023-05-12T15:54:43.183Z,0.56
2023-05-12T15:57:43.114Z,0.55
2023-05-12T16:00:43.209Z,0.47
2023-05-12T16:03:43.132Z,0.36
2023-05-12T16:06:43.187Z,0.49
2023-05-12T16:09:43.202Z,1.31
2023-05-12T16:12:43.173Z,1.16
2023-05-12T16:15:43.145Z,1.01
2023-05-12T16:18:43.175Z,1.22
2023-05-12T16:21:43.153Z,0.88
2023-05-12T16:24:43.402Z,0.96
2023-05-12T16:27:43.203Z,0.81
2023-05-12T16:30:43.131Z,0.66
2023-05-12T16:33:43.108Z,0.58
2023-05-12T16:36:43.218Z,0.69
2023-05-12T16:39:43.162Z,0.72
2023-05-12T16:42:43.210Z,0.96
2023-05-12T16:45:43.165Z,0.98
2023-05-12T16:48:43.123Z,0.69
2023-05-12T16:51:43.118Z,0.99
2023-05-12T16:54:43.217Z,0.77
2023-05-12T16:57:43.557Z,1.23
2023-05-12T17:00:43.246Z,1.44
2023-05-12T17:03:43.347Z,1.3
2023-05-12T17:06:43.228Z,1.29
2023-05-12T17:09:43.241Z,0.94
2023-05-12T17:12:43.279Z,0.68
2023-05-12T17:15:43.198Z,0.9
2023-05-12T17:21:43.132Z,0.44
2023-05-12T17:24:43.223Z,0.64
2023-05-12T17:27:43.238Z,0.46
2023-05-12T17:30:43.204Z,0.45
2023-05-12T17:33:43.228Z,0.79
2023-05-12T17:36:43.214Z,0.65
2023-05-12T17:39:43.246Z,0.61
2023-05-12T17:42:43.211Z,0.56
2023-05-12T17:45:43.217Z,0.99
2023-05-12T17:48:43.217Z,0.51
2023-05-12T17:51:43.233Z,0.37
2023-05-12T17:54:43.266Z,0.7
2023-05-12T17:57:43.227Z,0.64
2023-05-12T18:00:43.279Z,0.71
2023-05-12T18:03:43.301Z,0.87
2023-05-12T18:06:43.196Z,0.76
2023-05-12T18:09:43.186Z,1.13
2023-05-12T18:12:43.421Z,0.88
2023-05-12T18:15:43.281Z,0.89
2023-05-12T18:18:44.656Z,0.86
2023-05-12T18:21:43.249Z,0.66
2023-05-12T18:24:43.447Z,0.66
2023-05-12T18:27:45.028Z,0.85
2023-05-12T18:30:43.253Z,0.65
2023-05-12T18:33:43.326Z,0.69
2023-05-12T18:36:43.299Z,0.37
2023-05-12T18:39:43.333Z,0.89
2023-05-12T18:42:43.245Z,0.56
2023-05-12T18:45:43.252Z,0.37
2023-05-12T18:48:43.258Z,0.45
2023-05-12T18:51:43.277Z,0.36
2023-05-12T18:54:43.197Z,0.31
2023-05-12T18:57:43.330Z,0.63
2023-05-12T19:00:43.297Z,0.68
2023-05-12T19:03:43.268Z,0.56
2023-05-12T19:06:43.323Z,0.77
2023-05-12T19:09:43.363Z,0.59
2023-05-12T19:12:43.306Z,0.44
2023-05-12T19:15:43.277Z,0.61
2023-05-12T19:18:43.293Z,0.47
2023-05-12T19:21:43.250Z,0.47
2023-05-12T19:24:43.350Z,0.5
2023-05-12T19:27:43.289Z,0.64
2023-05-12T19:30:43.349Z,0.89
2023-05-12T19:33:43.360Z,0.53
2023-05-12T19:36:43.355Z,0.4
2023-05-12T19:39:43.292Z,0.5
2023-05-12T19:42:43.320Z,0.43
2023-05-12T19:45:43.383Z,0.64
2023-05-12T19:48:43.302Z,0.59
2023-05-12T19:51:43.283Z,0.54
2023-05-12T19:54:43.414Z,0.46
2023-05-12T19:57:43.283Z,0.44
2023-05-12T20:00:43.326Z,0.34
2023-05-12T20:03:43.348Z,0.21
2023-05-12T20:06:43.432Z,0.23
2023-05-12T20:09:43.355Z,0.22
2023-05-12T20:12:43.329Z,0.27
2023-05-12T20:15:43.317Z,0.19
2023-05-12T20:18:43.322Z,0.17
2023-05-12T20:21:43.410Z,0.43
2023-05-12T20:24:43.321Z,0.5
2023-05-12T20:27:43.354Z,0.66
2023-05-12T20:30:43.396Z,0.4
2023-05-12T20:33:43.357Z,0.32
2023-05-12T20:36:43.374Z,0.26
2023-05-12T20:39:43.454Z,0.19
2023-05-12T20:42:43.407Z,0.28
2023-05-12T20:45:43.409Z,0.21
2023-05-12T20:48:43.469Z,0.27
2023-05-12T20:51:43.398Z,0.15
2023-05-12T20:54:43.422Z,0.23
2023-05-12T20:57:43.375Z,0.14
2023-05-12T21:00:43.429Z,0.35
2023-05-12T21:03:43.434Z,0.25
2023-05-12T21:06:43.369Z,0.34
2023-05-12T21:09:43.371Z,0.32
2023-05-12T21:12:43.537Z,0.33
2023-05-12T21:15:43.447Z,0.37
2023-05-12T21:18:43.454Z,0.19
2023-05-12T21:21:43.389Z,0.32
2023-05-12T21:24:43.442Z,0.13
2023-05-12T21:27:43.388Z,0.16
2023-05-12T21:30:43.437Z,0.17
2023-05-12T21:33:43.482Z,0.2
2023-05-12T21:36:43.355Z,0.24
2023-05-12T21:39:43.357Z,0.26
2023-05-12T21:42:43.446Z,0.28
2023-05-12T21:45:43.526Z,0.04
2023-05-12T21:48:43.465Z,0.07
2023-05-12T21:51:43.424Z,0.29
2023-05-12T21:54:43.425Z,0.03
2023-05-12T21:57:43.489Z,0.24
2023-05-12T22:00:43.423Z,0.4
2023-05-12T22:03:43.446Z,0.2
2023-05-12T22:06:43.492Z,0.37
2023-05-12T22:09:43.462Z,0.35
2023-05-12T22:12:43.451Z,0.37
2023-05-12T22:15:43.445Z,0.28
2023-05-12T22:18:43.511Z,0.3
2023-05-12T22:21:43.490Z,0.57
2023-05-12T22:24:43.433Z,0.47
2023-05-12T22:27:43.490Z,0.48
2023-05-12T22:30:43.442Z,0.46
2023-05-12T22:33:43.474Z,0.28
2023-05-12T22:36:43.474Z,0.56
2023-05-12T22:39:43.445Z,0.42
2023-05-12T22:42:43.418Z,0.33
2023-05-12T22:45:43.542Z,0.39
2023-05-12T22:48:43.440Z,0.28
2023-05-12T22:51:43.476Z,0.31
2023-05-12T22:54:43.536Z,0.23
2023-05-12T22:57:43.494Z,0.26
2023-05-12T23:00:43.500Z,0.2
2023-05-12T23:03:43.531Z,0.15
2023-05-12T23:06:43.465Z,0.2
2023-05-12T23:09:43.429Z,0
2023-05-12T23:12:43.480Z,0
2023-05-12T23:15:43.551Z,0.02
2023-05-12T23:18:43.494Z,0
2023-05-12T23:21:43.490Z,0
2023-05-12T23:24:43.508Z,0
2023-05-12T23:27:43.533Z,0
2023-05-12T23:30:43.549Z,0
2023-05-12T23:33:43.627Z,0
2023-05-12T23:36:43.550Z,0
2023-05-12T23:39:43.565Z,0
2023-05-12T23:42:43.565Z,0
2023-05-12T23:45:43.490Z,0.04
2023-05-12T23:48:43.501Z,0.06
2023-05-12T23:51:43.545Z,0.08
2023-05-12T23:54:43.520Z,0.18
2023-05-12T23:57:43.556Z,0.06
